createdAt,value
2019-04-04T00:00:47.024Z,9.93
2019-04-04T00:03:16.177Z,9.93
2019-04-04T00:05:44.587Z,10.03
2019-04-04T00:08:13.173Z,9.47
2019-04-04T00:10:41.613Z,10.00
2019-04-04T00:13:11.217Z,9.77
2019-04-04T00:15:41.221Z,9.40
2019-04-04T00:18:09.646Z,9.37
2019-04-04T00:20:38.063Z,8.27
2019-04-04T00:23:06.892Z,8.60
2019-04-04T00:25:35.902Z,9.20
2019-04-04T00:28:04.389Z,9.60
2019-04-04T00:30:32.978Z,8.57
2019-04-04T00:33:01.885Z,9.20
2019-04-04T00:35:31.093Z,10.23
2019-04-04T00:38:00.172Z,8.60
2019-04-04T00:40:28.628Z,9.33
2019-04-04T00:42:57.114Z,9.47
2019-04-04T00:45:28.717Z,9.33
2019-04-04T00:47:55.750Z,9.33
2019-04-04T00:50:24.280Z,9.30
2019-04-04T00:52:52.728Z,10.00
2019-04-04T00:55:21.147Z,9.50
2019-04-04T00:57:50.337Z,8.67
2019-04-04T01:00:19.196Z,9.20
2019-04-04T01:02:47.640Z,9.30
2019-04-04T01:05:16.117Z,9.27
2019-04-04T01:07:44.516Z,8.87
2019-04-04T01:10:13.300Z,8.50
2019-04-04T01:12:41.716Z,8.10
2019-04-04T01:15:10.604Z,8.23
2019-04-04T01:17:39.022Z,9.23
2019-04-04T01:20:09.204Z,9.30
2019-04-04T01:22:37.687Z,9.20
2019-04-04T01:25:07.112Z,10.07
2019-04-04T01:27:36.926Z,9.50
2019-04-04T01:30:07.327Z,8.40
2019-04-04T01:32:35.877Z,9.93
2019-04-04T01:35:06.245Z,9.40
2019-04-04T01:37:34.695Z,9.33
2019-04-04T01:40:03.200Z,9.60
2019-04-04T01:42:31.747Z,10.20
2019-04-04T01:45:00.226Z,8.90
2019-04-04T01:47:28.656Z,9.50
2019-04-04T01:49:57.096Z,11.70
2019-04-04T01:52:27.858Z,10.03
2019-04-04T01:54:55.664Z,11.10
2019-04-04T01:57:24.076Z,11.07
2019-04-04T01:59:52.556Z,9.50
2019-04-04T02:02:20.956Z,9.73
2019-04-04T02:04:49.551Z,10.20
2019-04-04T02:07:18.052Z,11.27
2019-04-04T02:09:46.456Z,9.67
2019-04-04T02:12:14.884Z,10.17
2019-04-04T02:14:43.655Z,11.60
2019-04-04T02:17:12.926Z,11.13
2019-04-04T02:19:41.330Z,10.60
2019-04-04T02:22:09.767Z,10.90
2019-04-04T02:24:38.211Z,12.10
2019-04-04T02:27:06.930Z,9.40
2019-04-04T02:29:36.128Z,12.23
2019-04-04T02:32:06.388Z,11.00
2019-04-04T02:34:37.391Z,12.27
2019-04-04T02:37:04.981Z,11.80
2019-04-04T02:39:35.264Z,10.33
2019-04-04T02:42:03.640Z,11.57
2019-04-04T02:44:33.012Z,10.77
2019-04-04T02:47:01.783Z,11.37
2019-04-04T02:49:30.250Z,11.03
2019-04-04T02:51:58.740Z,10.70
2019-04-04T02:54:27.273Z,11.20
2019-04-04T02:56:55.703Z,10.97
2019-04-04T02:59:25.847Z,12.30
2019-04-04T03:01:54.335Z,11.83
2019-04-04T03:04:22.929Z,9.63
2019-04-04T03:06:51.755Z,11.10
2019-04-04T03:09:20.213Z,12.43
2019-04-04T03:11:53.474Z,12.03
2019-04-04T03:14:19.008Z,10.90
2019-04-04T03:16:47.490Z,12.40
2019-04-04T03:19:15.994Z,11.83
2019-04-04T03:21:44.488Z,11.40
2019-04-04T03:24:13.235Z,10.50
2019-04-04T03:26:43.586Z,11.53
2019-04-04T03:29:11.998Z,10.70
2019-04-04T03:31:40.527Z,10.80
2019-04-04T03:34:11.641Z,11.60
2019-04-04T03:36:39.147Z,10.90
2019-04-04T03:39:07.627Z,9.00
2019-04-04T03:41:36.406Z,9.93
2019-04-04T03:44:04.992Z,11.60
2019-04-04T03:46:38.384Z,9.30
2019-04-04T03:49:03.573Z,10.87
2019-04-04T03:51:31.989Z,10.30
2019-04-04T03:54:02.081Z,10.33
2019-04-04T03:56:38.861Z,11.30
2019-04-04T03:59:01.093Z,9.10
2019-04-04T04:01:29.531Z,8.90
2019-04-04T04:03:57.969Z,8.70
2019-04-04T04:06:26.392Z,9.23
2019-04-04T04:08:55.326Z,9.27
2019-04-04T04:11:23.838Z,10.37
2019-04-04T04:13:52.245Z,9.90
2019-04-04T04:16:20.692Z,11.57
2019-04-04T04:18:49.107Z,15.03
2019-04-04T04:21:17.539Z,10.50
2019-04-04T04:23:49.574Z,10.77
2019-04-04T04:26:16.127Z,10.03
2019-04-04T04:28:44.577Z,9.70
2019-04-04T04:31:15.363Z,9.73
2019-04-04T04:33:43.150Z,8.87
2019-04-04T04:36:15.247Z,10.40
2019-04-04T04:38:41.866Z,12.90
2019-04-04T04:41:10.334Z,13.30
2019-04-04T04:43:38.833Z,10.00
2019-04-04T04:46:07.371Z,9.43
2019-04-04T04:48:35.886Z,10.10
2019-04-04T04:51:04.342Z,11.20
2019-04-04T04:53:32.854Z,9.33
2019-04-04T04:56:01.284Z,9.50
2019-04-04T04:58:29.710Z,9.60
2019-04-04T05:00:58.226Z,10.60
2019-04-04T05:03:26.682Z,10.00
2019-04-04T05:05:55.110Z,9.13
2019-04-04T05:08:23.625Z,10.33
2019-04-04T05:10:52.044Z,10.20
2019-04-04T05:13:20.791Z,9.90
2019-04-04T05:15:49.206Z,10.30
2019-04-04T05:18:18.007Z,10.17
2019-04-04T05:20:46.444Z,10.43
2019-04-04T05:23:15.632Z,10.83
2019-04-04T05:25:53.434Z,14.50
2019-04-04T05:28:15.218Z,14.67
2019-04-04T05:30:45.121Z,10.20
2019-04-04T05:33:13.825Z,10.53
2019-04-04T05:35:42.245Z,9.70
2019-04-04T05:38:12.429Z,10.40
2019-04-04T05:40:40.863Z,11.17
2019-04-04T05:43:09.316Z,11.80
2019-04-04T05:45:37.731Z,10.23
2019-04-04T05:48:06.246Z,10.03
2019-04-04T05:50:35.002Z,12.03
2019-04-04T05:53:08.582Z,13.90
2019-04-04T05:55:37.024Z,18.43
2019-04-04T05:58:09.731Z,12.67
2019-04-04T06:00:41.751Z,10.20
2019-04-04T06:03:10.562Z,10.07
2019-04-04T06:05:38.986Z,10.40
2019-04-04T06:08:11.306Z,10.37
2019-04-04T06:10:43.426Z,11.00
2019-04-04T06:13:11.837Z,9.03
2019-04-04T06:15:40.276Z,9.87
2019-04-04T06:18:12.028Z,11.60
2019-04-04T06:20:43.729Z,12.37
2019-04-04T06:23:12.523Z,11.43
2019-04-04T06:25:40.996Z,11.10
2019-04-04T06:28:14.698Z,10.80
2019-04-04T06:30:46.424Z,10.10
2019-04-04T06:33:17.596Z,11.90
2019-04-04T06:35:47.840Z,11.80
2019-04-04T06:38:16.557Z,11.40
2019-04-04T06:40:47.154Z,10.63
2019-04-04T06:43:25.778Z,11.67
2019-04-04T06:45:46.567Z,10.30
2019-04-04T06:48:16.055Z,10.90
2019-04-04T06:50:46.601Z,11.53
2019-04-04T06:53:15.331Z,10.83
2019-04-04T06:55:43.822Z,11.50
2019-04-04T06:58:16.998Z,10.27
2019-04-04T07:00:50.290Z,11.83
2019-04-04T07:03:27.071Z,10.83
2019-04-04T07:05:58.432Z,12.00
2019-04-04T07:08:29.517Z,11.10
2019-04-04T07:11:00.392Z,11.07
2019-04-04T07:13:28.489Z,11.40
2019-04-04T07:16:06.991Z,9.80
2019-04-04T07:18:34.173Z,11.20
2019-04-04T07:21:06.273Z,10.73
2019-04-04T07:23:34.790Z,11.90
2019-04-04T07:26:05.367Z,11.37
2019-04-04T07:28:35.446Z,11.17
2019-04-04T07:31:07.386Z,10.90
2019-04-04T07:33:35.840Z,13.27
2019-04-04T07:36:04.581Z,13.00
2019-04-04T07:38:35.883Z,12.73
2019-04-04T07:41:08.946Z,12.97
2019-04-04T07:43:39.210Z,12.70
2019-04-04T07:46:16.258Z,13.93
2019-04-04T07:48:38.026Z,12.10
2019-04-04T07:51:13.101Z,13.67
2019-04-04T07:53:47.751Z,13.63
2019-04-04T07:56:19.183Z,13.70
2019-04-04T07:58:51.746Z,12.63
2019-04-04T08:01:20.227Z,12.33
2019-04-04T08:03:50.365Z,13.30
2019-04-04T08:06:20.564Z,12.60
2019-04-04T08:08:51.549Z,13.43
2019-04-04T08:11:20.669Z,13.90
2019-04-04T08:13:52.047Z,12.20
2019-04-04T08:16:21.322Z,13.47
2019-04-04T08:18:50.771Z,11.80
2019-04-04T08:21:19.250Z,12.87
2019-04-04T08:23:49.075Z,12.50
2019-04-04T08:26:21.126Z,12.70
2019-04-04T08:28:49.651Z,10.30
2019-04-04T08:31:18.205Z,12.73
2019-04-04T08:33:49.009Z,11.50
2019-04-04T08:36:24.821Z,12.33
2019-04-04T08:38:56.233Z,13.10
2019-04-04T08:41:29.431Z,13.77
2019-04-04T08:43:54.834Z,12.33
2019-04-04T08:46:24.562Z,13.27
2019-04-04T08:48:54.421Z,12.90
2019-04-04T08:51:23.140Z,13.17
2019-04-04T08:53:52.290Z,13.50
2019-04-04T08:56:25.140Z,12.97
2019-04-04T08:58:58.802Z,11.90
2019-04-04T09:01:30.451Z,14.37
2019-04-04T09:03:59.148Z,13.03
2019-04-04T09:06:27.596Z,13.57
2019-04-04T09:08:59.358Z,12.87
2019-04-04T09:11:27.912Z,14.07
2019-04-04T09:13:57.956Z,15.67
2019-04-04T09:16:27.996Z,14.67
2019-04-04T09:19:01.101Z,12.20
2019-04-04T09:21:32.819Z,11.80
2019-04-04T09:24:00.938Z,12.83
2019-04-04T09:26:29.552Z,14.60
2019-04-04T09:29:01.608Z,11.40
2019-04-04T09:31:30.485Z,10.93
2019-04-04T09:33:59.260Z,13.10
2019-04-04T09:36:30.368Z,13.27
2019-04-04T09:39:04.711Z,13.97
2019-04-04T09:41:36.194Z,11.20
2019-04-04T09:44:06.095Z,8.60
2019-04-04T09:46:35.306Z,10.60
2019-04-04T09:49:05.469Z,11.50
2019-04-04T09:51:37.292Z,10.23
2019-04-04T09:54:05.994Z,10.10
2019-04-04T09:56:34.720Z,9.90
2019-04-04T09:59:06.280Z,11.17
2019-04-04T10:01:38.600Z,11.13
2019-04-04T10:04:07.646Z,10.73
2019-04-04T10:06:48.635Z,10.93
2019-04-04T10:09:21.040Z,11.73
2019-04-04T10:11:54.444Z,11.37
2019-04-04T10:14:23.238Z,10.07
2019-04-04T10:16:52.034Z,12.07
2019-04-04T10:19:24.424Z,12.07
2019-04-04T10:21:56.522Z,9.33
2019-04-04T10:24:31.378Z,9.97
2019-04-04T10:27:04.359Z,12.50
2019-04-04T10:29:38.582Z,13.70
2019-04-04T10:32:11.494Z,14.10
2019-04-04T10:34:39.974Z,13.50
2019-04-04T10:37:09.888Z,11.07
2019-04-04T10:39:40.162Z,13.10
2019-04-04T10:42:12.171Z,12.30
2019-04-04T10:44:40.626Z,12.77
2019-04-04T10:47:09.322Z,11.37
2019-04-04T10:49:41.134Z,10.90
2019-04-04T10:52:12.446Z,12.77
2019-04-04T10:54:40.866Z,9.90
2019-04-04T10:57:09.284Z,11.77
2019-04-04T10:59:40.868Z,10.83
2019-04-04T11:02:10.309Z,11.20
2019-04-04T11:04:38.834Z,11.33
2019-04-04T11:07:08.985Z,12.07
2019-04-04T11:09:57.809Z,10.40
2019-04-04T11:12:30.528Z,10.57
2019-04-04T11:14:58.998Z,9.70
2019-04-04T11:17:27.603Z,10.27
2019-04-04T11:19:59.646Z,10.00
2019-04-04T11:22:33.230Z,8.07
2019-04-04T11:25:03.484Z,9.77
2019-04-04T11:27:32.028Z,10.70
2019-04-04T11:30:00.956Z,11.67
2019-04-04T11:32:33.347Z,10.30
2019-04-04T11:35:03.111Z,11.13
2019-04-04T11:37:31.574Z,12.77
2019-04-04T11:40:01.346Z,11.17
2019-04-04T11:42:33.374Z,11.93
2019-04-04T11:45:02.054Z,12.70
2019-04-04T11:47:30.623Z,12.23
2019-04-04T11:50:07.684Z,12.97
2019-04-04T11:52:36.694Z,12.33
2019-04-04T11:55:12.169Z,13.03
2019-04-04T11:57:47.117Z,12.13
2019-04-04T12:00:19.898Z,11.07
2019-04-04T12:02:51.832Z,11.17
2019-04-04T12:05:24.025Z,11.77
2019-04-04T12:07:53.038Z,11.17
2019-04-04T12:10:21.492Z,12.87
2019-04-04T12:12:53.924Z,11.80
2019-04-04T12:15:25.544Z,13.10
2019-04-04T12:17:55.336Z,13.93
2019-04-04T12:20:24.130Z,12.60
2019-04-04T12:22:55.866Z,12.80
2019-04-04T12:25:27.596Z,11.20
2019-04-04T12:28:00.770Z,11.27
2019-04-04T12:30:26.592Z,13.73
2019-04-04T12:32:55.860Z,12.43
2019-04-04T12:35:28.044Z,11.97
2019-04-04T12:37:56.460Z,12.67
2019-04-04T12:40:24.892Z,13.47
2019-04-04T12:42:56.952Z,12.13
2019-04-04T12:45:30.287Z,11.57
2019-04-04T12:48:01.436Z,12.23
2019-04-04T12:50:30.244Z,11.87
2019-04-04T12:52:58.920Z,10.13
2019-04-04T12:55:31.173Z,12.03
2019-04-04T12:58:02.752Z,11.47
2019-04-04T13:00:31.479Z,11.03
2019-04-04T13:02:59.906Z,12.40
2019-04-04T13:05:34.499Z,12.13
2019-04-04T13:08:07.384Z,12.10
2019-04-04T13:10:39.244Z,10.53
2019-04-04T13:13:07.686Z,11.10
2019-04-04T13:15:36.123Z,10.57
2019-04-04T13:18:08.416Z,11.60
2019-04-04T13:20:41.796Z,10.37
2019-04-04T13:23:11.456Z,11.47
2019-04-04T13:25:40.281Z,11.43
2019-04-04T13:28:09.127Z,12.07
2019-04-04T13:30:40.962Z,9.50
2019-04-04T13:33:09.433Z,9.60
2019-04-04T13:35:38.595Z,10.87
2019-04-04T13:38:10.233Z,9.93
2019-04-04T13:40:45.654Z,11.10
2019-04-04T13:43:16.401Z,9.70
2019-04-04T13:45:45.422Z,10.57
2019-04-04T13:48:14.552Z,10.97
2019-04-04T13:50:44.608Z,10.23
2019-04-04T13:53:14.535Z,9.00
2019-04-04T13:55:43.032Z,10.10
2019-04-04T13:58:12.435Z,8.70
2019-04-04T14:00:43.999Z,8.30
2019-04-04T14:03:13.884Z,8.77
2019-04-04T14:05:42.588Z,9.10
2019-04-04T14:08:14.495Z,8.50
2019-04-04T14:10:57.559Z,9.03
2019-04-04T14:13:21.722Z,9.30
2019-04-04T14:15:54.960Z,8.90
2019-04-04T14:18:39.103Z,9.03
2019-04-04T14:21:03.673Z,9.43
2019-04-04T14:23:35.661Z,9.40
2019-04-04T14:26:04.568Z,8.77
2019-04-04T14:28:33.332Z,8.27
2019-04-04T14:31:03.344Z,9.70
2019-04-04T14:33:32.886Z,10.13
2019-04-04T14:36:01.564Z,8.37
2019-04-04T14:38:31.145Z,8.90
2019-04-04T14:41:10.604Z,8.83
2019-04-04T14:43:30.491Z,9.97
2019-04-04T14:45:58.889Z,9.10
2019-04-04T14:48:31.364Z,8.10
2019-04-04T14:51:00.763Z,9.10
2019-04-04T14:53:29.244Z,9.00
2019-04-04T14:55:59.866Z,8.13
2019-04-04T14:58:32.029Z,9.90
2019-04-04T15:01:00.685Z,9.37
2019-04-04T15:03:31.504Z,9.30
2019-04-04T15:05:59.954Z,9.00
2019-04-04T15:08:28.462Z,8.67
2019-04-04T15:10:57.069Z,10.13
2019-04-04T15:13:25.648Z,8.63
2019-04-04T15:16:17.224Z,8.40
2019-04-04T15:18:45.824Z,8.77
2019-04-04T15:21:14.957Z,9.83
2019-04-04T15:23:43.469Z,9.33
2019-04-04T15:26:12.061Z,9.70
2019-04-04T15:28:40.523Z,10.40
2019-04-04T15:31:09.532Z,9.67
2019-04-04T15:33:38.002Z,9.13
2019-04-04T15:36:06.517Z,9.53
2019-04-04T15:38:34.987Z,10.57
2019-04-04T15:41:03.613Z,10.43
2019-04-04T15:43:33.708Z,9.97
2019-04-04T15:46:02.293Z,10.47
2019-04-04T15:48:30.743Z,10.87
2019-04-04T15:50:59.180Z,10.30
2019-04-04T15:53:27.629Z,10.37
2019-04-04T15:55:56.080Z,11.73
2019-04-04T15:58:24.529Z,10.30
2019-04-04T16:00:52.998Z,10.13
2019-04-04T16:03:21.475Z,9.07
2019-04-04T16:05:49.870Z,8.30
2019-04-04T16:08:18.429Z,9.57
2019-04-04T16:10:47.028Z,8.80
2019-04-04T16:13:15.558Z,9.20
2019-04-04T16:15:44.024Z,9.90
2019-04-04T16:18:12.520Z,9.60
2019-04-04T16:20:40.955Z,10.27
2019-04-04T16:23:09.558Z,10.00
2019-04-04T16:25:38.000Z,9.90
2019-04-04T16:28:06.610Z,10.07
2019-04-04T16:30:35.032Z,9.90
2019-04-04T16:33:03.466Z,10.00
2019-04-04T16:35:32.522Z,10.77
2019-04-04T16:38:01.128Z,9.60
2019-04-04T16:40:29.732Z,10.70
2019-04-04T16:42:58.385Z,9.50
2019-04-04T16:45:26.913Z,10.00
2019-04-04T16:47:55.647Z,11.27
2019-04-04T16:50:24.165Z,9.97
2019-04-04T16:52:52.620Z,9.27
2019-04-04T16:55:21.298Z,9.60
2019-04-04T16:57:49.799Z,10.83
2019-04-04T17:00:20.933Z,10.30
2019-04-04T17:02:49.723Z,10.07
2019-04-04T17:05:18.327Z,9.70
2019-04-04T17:07:46.881Z,10.73
2019-04-04T17:10:15.807Z,10.17
2019-04-04T17:12:44.252Z,9.60
2019-04-04T17:15:13.412Z,10.43
2019-04-04T17:17:41.863Z,11.50
2019-04-04T17:20:11.909Z,11.80
2019-04-04T17:22:40.359Z,10.20
2019-04-04T17:25:09.525Z,11.83
2019-04-04T17:27:39.726Z,10.53
2019-04-04T17:30:09.349Z,10.50
2019-04-04T17:32:37.959Z,11.40
2019-04-04T17:35:07.494Z,11.83
2019-04-04T17:37:36.006Z,12.50
2019-04-04T17:40:07.297Z,12.20
2019-04-04T17:42:36.591Z,11.80
2019-04-04T17:45:08.055Z,10.73
2019-04-04T17:47:36.816Z,12.67
2019-04-04T17:50:08.436Z,11.80
2019-04-04T17:52:37.024Z,11.40
2019-04-04T17:55:08.194Z,11.83
2019-04-04T17:57:37.206Z,12.17
2019-04-04T18:00:08.226Z,12.53
2019-04-04T18:02:36.792Z,12.77
2019-04-04T18:05:11.005Z,13.33
2019-04-04T18:07:39.775Z,13.30
2019-04-04T18:10:08.663Z,13.67
2019-04-04T18:12:40.451Z,13.60
2019-04-04T18:15:08.356Z,12.80
2019-04-04T18:17:37.068Z,13.17
2019-04-04T18:20:08.067Z,12.93
2019-04-04T18:22:36.939Z,12.80
2019-04-04T18:25:08.892Z,11.40
2019-04-04T18:27:37.505Z,12.77
2019-04-04T18:30:10.998Z,12.90
2019-04-04T18:32:39.493Z,11.90
2019-04-04T18:35:08.474Z,12.77
2019-04-04T18:37:37.262Z,13.03
2019-04-04T18:40:07.650Z,14.27
2019-04-04T18:42:37.975Z,13.10
2019-04-04T18:45:07.203Z,12.20
2019-04-04T18:47:35.687Z,13.90
2019-04-04T18:50:05.854Z,14.13
2019-04-04T18:52:34.588Z,16.50
2019-04-04T18:55:03.538Z,16.43
2019-04-04T18:57:34.194Z,16.97
2019-04-04T19:00:02.990Z,15.90
2019-04-04T19:02:31.476Z,17.57
2019-04-04T19:05:00.016Z,24.53
2019-04-04T19:07:38.662Z,22.17
2019-04-04T19:09:58.851Z,17.90
2019-04-04T19:12:27.317Z,16.20
2019-04-04T19:14:56.067Z,17.60
2019-04-04T19:17:24.703Z,16.53
2019-04-04T19:19:53.214Z,17.57
2019-04-04T19:22:24.742Z,19.90
2019-04-04T19:24:53.218Z,20.40
2019-04-04T19:27:21.713Z,21.10
2019-04-04T19:29:50.467Z,20.90
2019-04-04T19:32:18.991Z,20.90
2019-04-04T19:34:47.421Z,61.53
2019-04-04T19:37:17.851Z,53.17
2019-04-04T19:39:46.273Z,25.20
2019-04-04T19:42:14.884Z,25.73
2019-04-04T19:44:52.703Z,22.83
2019-04-04T19:47:13.705Z,28.80
2019-04-04T19:49:42.247Z,24.43
2019-04-04T19:52:12.092Z,23.20
2019-04-04T19:54:40.869Z,24.13
2019-04-04T19:57:09.794Z,23.17
2019-04-04T19:59:38.330Z,22.50
2019-04-04T20:02:08.484Z,26.33
2019-04-04T20:04:37.478Z,24.33
2019-04-04T20:07:05.990Z,31.67
2019-04-04T20:09:34.495Z,34.90
2019-04-04T20:12:03.232Z,24.77
2019-04-04T20:14:31.876Z,22.90
2019-04-04T20:17:04.335Z,24.17
2019-04-04T20:19:33.278Z,21.53
2019-04-04T20:22:02.042Z,21.07
2019-04-04T20:24:31.236Z,20.00
2019-04-04T20:27:00.007Z,19.93
2019-04-04T20:29:28.658Z,32.20
2019-04-04T20:31:58.045Z,24.80
2019-04-04T20:37:15.500Z,21.70
2019-04-04T20:39:44.417Z,20.67
2019-04-04T20:42:12.911Z,19.40
2019-04-04T20:44:43.890Z,21.80
2019-04-04T20:47:12.467Z,21.03
2019-04-04T20:49:40.907Z,17.90
2019-04-04T20:52:11.008Z,35.83
2019-04-04T20:54:40.037Z,23.27
2019-04-04T20:57:08.645Z,19.53
2019-04-04T20:59:37.073Z,19.03
2019-04-04T21:02:05.590Z,19.03
2019-04-04T21:04:34.126Z,20.10
2019-04-04T21:07:02.626Z,31.47
2019-04-04T21:09:31.990Z,19.70
2019-04-04T21:12:01.990Z,21.80
2019-04-04T21:14:30.635Z,20.60
2019-04-04T21:17:00.872Z,21.20
2019-04-04T21:19:29.331Z,21.13
2019-04-04T21:21:59.432Z,22.77
2019-04-04T21:24:27.887Z,18.30
2019-04-04T21:26:56.293Z,20.43
2019-04-04T21:29:24.735Z,21.30
2019-04-04T21:31:54.673Z,21.20
2019-04-04T21:34:23.152Z,22.47
2019-04-04T21:36:51.738Z,20.47
2019-04-04T21:39:20.334Z,21.50
2019-04-04T21:41:48.829Z,21.20
2019-04-04T21:44:17.277Z,21.20
2019-04-04T21:46:45.725Z,21.37
2019-04-04T21:49:14.171Z,22.57
2019-04-04T21:51:42.608Z,20.63
2019-04-04T21:54:11.329Z,20.50
2019-04-04T21:56:39.977Z,20.37
2019-04-04T21:59:08.411Z,20.43
2019-04-04T22:01:36.889Z,19.83
2019-04-04T22:04:05.459Z,21.70
2019-04-04T22:06:33.903Z,22.50
2019-04-04T22:09:04.134Z,22.10
2019-04-04T22:11:32.545Z,22.17
2019-04-04T22:14:01.011Z,23.20
2019-04-04T22:16:33.517Z,19.43
2019-04-04T22:19:03.709Z,20.73
2019-04-04T22:21:32.164Z,19.70
2019-04-04T22:24:00.637Z,21.77
2019-04-04T22:26:29.267Z,21.07
2019-04-04T22:28:57.745Z,22.60
2019-04-04T22:31:26.177Z,23.37
2019-04-04T22:33:54.629Z,22.07
2019-04-04T22:36:23.065Z,21.83
2019-04-04T22:38:51.502Z,24.23
2019-04-04T22:41:21.055Z,21.87
2019-04-04T22:44:02.494Z,22.93
2019-04-04T22:46:19.741Z,22.87
2019-04-04T22:48:48.268Z,22.90
2019-04-04T22:51:16.690Z,21.97
2019-04-04T22:53:45.149Z,24.57
2019-04-04T22:56:13.615Z,21.70
2019-04-04T22:58:42.031Z,23.63
2019-04-04T23:01:10.769Z,22.03
2019-04-04T23:03:39.261Z,21.17
2019-04-04T23:06:07.703Z,22.40
2019-04-04T23:08:36.135Z,22.63
2019-04-04T23:11:04.564Z,21.33
2019-04-04T23:14:30.496Z,23.23
2019-04-04T23:16:51.536Z,22.20
2019-04-04T23:19:20.117Z,21.50
2019-04-04T23:21:48.657Z,22.23
2019-04-04T23:24:17.121Z,21.90
2019-04-04T23:26:45.523Z,22.43
2019-04-04T23:29:14.005Z,20.67
2019-04-04T23:31:42.661Z,23.17
2019-04-04T23:34:11.131Z,21.67
2019-04-04T23:36:39.572Z,21.60
2019-04-04T23:39:08.026Z,20.60
2019-04-04T23:41:36.440Z,21.40
2019-04-04T23:44:04.880Z,21.57
2019-04-04T23:46:33.322Z,22.00
2019-04-04T23:49:01.755Z,21.90
2019-04-04T23:51:30.244Z,23.37
2019-04-04T23:53:58.665Z,20.00
2019-04-04T23:56:27.151Z,21.83
2019-04-04T23:58:55.614Z,21.07
